sensor_id;sensor_type;location;lat;lon;timestamp;temperature;humidity
69261;DHT22;56378;52.404;20.816;2023-03-03T00:02:23;-4.80;99.90
69261;DHT22;56378;52.404;20.816;2023-03-03T00:04:49;-4.80;99.90
69261;DHT22;56378;52.404;20.816;2023-03-03T00:07:15;-4.80;99.90
69261;DHT22;56378;52.404;20.816;2023-03-03T00:09:46;-4.80;99.90
69261;DHT22;56378;52.404;20.816;2023-03-03T00:12:24;-4.80;99.90
69261;DHT22;56378;52.404;20.816;2023-03-03T00:14:50;-4.80;99.90
69261;DHT22;56378;52.404;20.816;2023-03-03T00:17:26;-4.80;99.90
69261;DHT22;56378;52.404;20.816;2023-03-03T00:19:52;-4.80;99.90
69261;DHT22;56378;52.404;20.816;2023-03-03T00:22:30;-4.80;99.90
69261;DHT22;56378;52.404;20.816;2023-03-03T00:27:44;-4.80;99.90
69261;DHT22;56378;52.404;20.816;2023-03-03T00:30:24;-4.80;99.90
69261;DHT22;56378;52.404;20.816;2023-03-03T00:32:51;-4.80;99.90
69261;DHT22;56378;52.404;20.816;2023-03-03T00:35:30;-4.80;99.90
69261;DHT22;56378;52.404;20.816;2023-03-03T00:38:01;-4.80;99.90
69261;DHT22;56378;52.404;20.816;2023-03-03T00:40:37;-4.80;99.90
69261;DHT22;56378;52.404;20.816;2023-03-03T00:43:20;-4.80;99.90
69261;DHT22;56378;52.404;20.816;2023-03-03T00:45:47;-4.90;99.90
69261;DHT22;56378;52.404;20.816;2023-03-03T00:51:12;-4.90;99.90
69261;DHT22;56378;52.404;20.816;2023-03-03T00:53:43;-4.90;99.90
69261;DHT22;56378;52.404;20.816;2023-03-03T00:56:09;-4.90;99.90
69261;DHT22;56378;52.404;20.816;2023-03-03T00:58:35;-4.90;99.90
69261;DHT22;56378;52.404;20.816;2023-03-03T01:01:00;-4.90;99.90
69261;DHT22;56378;52.404;20.816;2023-03-03T01:03:26;-4.90;99.90
69261;DHT22;56378;52.404;20.816;2023-03-03T01:05:53;-4.90;99.90
69261;DHT22;56378;52.404;20.816;2023-03-03T01:08:19;-4.90;99.90
69261;DHT22;56378;52.404;20.816;2023-03-03T01:10:51;-4.90;99.90
69261;DHT22;56378;52.404;20.816;2023-03-03T01:13:29;-5.00;99.90
69261;DHT22;56378;52.404;20.816;2023-03-03T01:15:55;-5.00;99.90
69261;DHT22;56378;52.404;20.816;2023-03-03T01:18:21;-5.00;99.90
69261;DHT22;56378;52.404;20.816;2023-03-03T01:20:47;-4.90;99.90
69261;DHT22;56378;52.404;20.816;2023-03-03T01:23:13;-4.90;99.90
69261;DHT22;56378;52.404;20.816;2023-03-03T01:25:38;-4.90;99.90
69261;DHT22;56378;52.404;20.816;2023-03-03T01:28:04;-4.90;99.90
69261;DHT22;56378;52.404;20.816;2023-03-03T01:30:30;-4.90;99.90
69261;DHT22;56378;52.404;20.816;2023-03-03T01:32:56;-4.90;99.90
69261;DHT22;56378;52.404;20.816;2023-03-03T01:35:22;-5.00;99.90
69261;DHT22;56378;52.404;20.816;2023-03-03T01:37:48;-5.00;99.90
69261;DHT22;56378;52.404;20.816;2023-03-03T01:40:20;-5.00;99.90
69261;DHT22;56378;52.404;20.816;2023-03-03T01:42:46;-5.00;99.90
69261;DHT22;56378;52.404;20.816;2023-03-03T01:45:21;-5.00;99.90
69261;DHT22;56378;52.404;20.816;2023-03-03T01:48:13;-5.00;99.90
69261;DHT22;56378;52.404;20.816;2023-03-03T01:53:42;-5.00;99.90
69261;DHT22;56378;52.404;20.816;2023-03-03T01:56:09;-5.00;99.90
69261;DHT22;56378;52.404;20.816;2023-03-03T01:58:38;-5.00;99.90
69261;DHT22;56378;52.404;20.816;2023-03-03T02:01:08;-5.10;99.90
69261;DHT22;56378;52.404;20.816;2023-03-03T02:03:35;-5.10;99.90
69261;DHT22;56378;52.404;20.816;2023-03-03T02:06:06;-5.10;99.90
69261;DHT22;56378;52.404;20.816;2023-03-03T02:08:42;-5.10;99.90
69261;DHT22;56378;52.404;20.816;2023-03-03T02:11:10;-5.10;99.90
69261;DHT22;56378;52.404;20.816;2023-03-03T02:13:36;-5.10;99.90
69261;DHT22;56378;52.404;20.816;2023-03-03T02:16:02;-5.10;99.90
69261;DHT22;56378;52.404;20.816;2023-03-03T02:18:28;-5.10;99.90
69261;DHT22;56378;52.404;20.816;2023-03-03T02:21:10;-5.10;99.90
69261;DHT22;56378;52.404;20.816;2023-03-03T02:23:49;-5.20;99.90
69261;DHT22;56378;52.404;20.816;2023-03-03T02:26:21;-5.20;99.90
69261;DHT22;56378;52.404;20.816;2023-03-03T02:28:48;-5.20;99.90
69261;DHT22;56378;52.404;20.816;2023-03-03T02:31:17;-5.20;99.90
69261;DHT22;56378;52.404;20.816;2023-03-03T02:33:47;-5.30;99.90
69261;DHT22;56378;52.404;20.816;2023-03-03T02:36:21;-5.30;99.90
69261;DHT22;56378;52.404;20.816;2023-03-03T02:38:55;-5.30;99.50
69261;DHT22;56378;52.404;20.816;2023-03-03T02:41:32;-5.40;99.60
69261;DHT22;56378;52.404;20.816;2023-03-03T02:44:09;-5.40;99.90
69261;DHT22;56378;52.404;20.816;2023-03-03T02:46:41;-5.50;99.90
69261;DHT22;56378;52.404;20.816;2023-03-03T02:49:09;-5.50;99.90
69261;DHT22;56378;52.404;20.816;2023-03-03T02:51:35;-5.50;99.90
69261;DHT22;56378;52.404;20.816;2023-03-03T02:54:01;-5.60;99.90
69261;DHT22;56378;52.404;20.816;2023-03-03T02:56:28;-5.60;99.90
69261;DHT22;56378;52.404;20.816;2023-03-03T02:58:54;-5.70;99.90
69261;DHT22;56378;52.404;20.816;2023-03-03T03:01:20;-5.80;99.90
69261;DHT22;56378;52.404;20.816;2023-03-03T03:03:45;-5.80;99.90
69261;DHT22;56378;52.404;20.816;2023-03-03T03:06:11;-5.80;99.90
69261;DHT22;56378;52.404;20.816;2023-03-03T03:08:37;-5.80;99.90
69261;DHT22;56378;52.404;20.816;2023-03-03T03:11:03;-5.80;99.90
69261;DHT22;56378;52.404;20.816;2023-03-03T03:13:30;-5.80;99.90
69261;DHT22;56378;52.404;20.816;2023-03-03T03:15:56;-5.70;99.90
69261;DHT22;56378;52.404;20.816;2023-03-03T03:18:22;-5.80;99.90
69261;DHT22;56378;52.404;20.816;2023-03-03T03:20:48;-5.70;99.90
69261;DHT22;56378;52.404;20.816;2023-03-03T03:23:14;-5.70;99.90
69261;DHT22;56378;52.404;20.816;2023-03-03T03:25:40;-5.70;99.90
69261;DHT22;56378;52.404;20.816;2023-03-03T03:28:14;-5.60;99.90
69261;DHT22;56378;52.404;20.816;2023-03-03T03:30:40;-5.60;99.90
69261;DHT22;56378;52.404;20.816;2023-03-03T03:33:07;-5.60;99.90
69261;DHT22;56378;52.404;20.816;2023-03-03T03:35:34;-5.60;99.90
69261;DHT22;56378;52.404;20.816;2023-03-03T03:38:00;-5.60;99.90
69261;DHT22;56378;52.404;20.816;2023-03-03T03:40:26;-5.50;99.90
69261;DHT22;56378;52.404;20.816;2023-03-03T03:42:53;-5.50;99.90
69261;DHT22;56378;52.404;20.816;2023-03-03T03:45:19;-5.40;99.90
69261;DHT22;56378;52.404;20.816;2023-03-03T03:47:45;-5.40;99.90
69261;DHT22;56378;52.404;20.816;2023-03-03T03:50:11;-5.40;99.90
69261;DHT22;56378;52.404;20.816;2023-03-03T03:52:37;-5.40;99.90
69261;DHT22;56378;52.404;20.816;2023-03-03T03:55:03;-5.40;99.90
69261;DHT22;56378;52.404;20.816;2023-03-03T03:57:29;-5.40;99.90
69261;DHT22;56378;52.404;20.816;2023-03-03T03:59:55;-5.40;99.90
69261;DHT22;56378;52.404;20.816;2023-03-03T04:02:21;-5.40;99.90
69261;DHT22;56378;52.404;20.816;2023-03-03T04:04:47;-5.30;99.90
69261;DHT22;56378;52.404;20.816;2023-03-03T04:07:13;-5.30;99.90
69261;DHT22;56378;52.404;20.816;2023-03-03T04:09:38;-5.30;99.90
69261;DHT22;56378;52.404;20.816;2023-03-03T04:12:04;-5.20;99.90
69261;DHT22;56378;52.404;20.816;2023-03-03T04:14:30;-5.20;99.90
69261;DHT22;56378;52.404;20.816;2023-03-03T04:16:56;-5.20;99.90
69261;DHT22;56378;52.404;20.816;2023-03-03T04:19:22;-5.20;99.90
69261;DHT22;56378;52.404;20.816;2023-03-03T04:21:48;-5.10;99.90
69261;DHT22;56378;52.404;20.816;2023-03-03T04:24:14;-5.10;99.90
69261;DHT22;56378;52.404;20.816;2023-03-03T04:26:40;-5.10;99.90
69261;DHT22;56378;52.404;20.816;2023-03-03T04:29:06;-5.10;99.90
69261;DHT22;56378;52.404;20.816;2023-03-03T04:31:31;-5.10;99.90
69261;DHT22;56378;52.404;20.816;2023-03-03T04:33:57;-5.00;99.90
69261;DHT22;56378;52.404;20.816;2023-03-03T04:36:23;-5.00;99.90
69261;DHT22;56378;52.404;20.816;2023-03-03T04:38:49;-4.90;99.90
69261;DHT22;56378;52.404;20.816;2023-03-03T04:41:15;-4.90;99.90
69261;DHT22;56378;52.404;20.816;2023-03-03T04:43:41;-4.80;99.90
69261;DHT22;56378;52.404;20.816;2023-03-03T04:46:07;-4.80;99.90
69261;DHT22;56378;52.404;20.816;2023-03-03T04:48:32;-4.80;99.90
69261;DHT22;56378;52.404;20.816;2023-03-03T04:50:58;-4.70;99.90
69261;DHT22;56378;52.404;20.816;2023-03-03T04:53:24;-4.70;99.90
69261;DHT22;56378;52.404;20.816;2023-03-03T04:55:51;-4.60;99.90
69261;DHT22;56378;52.404;20.816;2023-03-03T04:58:17;-4.60;99.90
69261;DHT22;56378;52.404;20.816;2023-03-03T05:00:47;-4.60;99.90
69261;DHT22;56378;52.404;20.816;2023-03-03T05:03:17;-4.50;99.90
69261;DHT22;56378;52.404;20.816;2023-03-03T05:05:45;-4.40;99.90
69261;DHT22;56378;52.404;20.816;2023-03-03T05:08:11;-4.40;99.90
69261;DHT22;56378;52.404;20.816;2023-03-03T05:10:38;-4.40;99.90
69261;DHT22;56378;52.404;20.816;2023-03-03T05:13:04;-4.30;99.90
69261;DHT22;56378;52.404;20.816;2023-03-03T05:15:30;-4.30;99.90
69261;DHT22;56378;52.404;20.816;2023-03-03T05:17:56;-4.20;99.90
69261;DHT22;56378;52.404;20.816;2023-03-03T05:20:23;-4.20;99.90
69261;DHT22;56378;52.404;20.816;2023-03-03T05:22:49;-4.20;99.90
69261;DHT22;56378;52.404;20.816;2023-03-03T05:25:15;-4.10;99.90
69261;DHT22;56378;52.404;20.816;2023-03-03T05:27:41;-4.10;99.90
69261;DHT22;56378;52.404;20.816;2023-03-03T05:30:09;-4.00;99.90
69261;DHT22;56378;52.404;20.816;2023-03-03T05:32:35;-4.00;99.90
69261;DHT22;56378;52.404;20.816;2023-03-03T05:35:01;-4.00;99.90
69261;DHT22;56378;52.404;20.816;2023-03-03T05:37:27;-3.90;99.90
69261;DHT22;56378;52.404;20.816;2023-03-03T05:39:53;-3.90;99.90
69261;DHT22;56378;52.404;20.816;2023-03-03T05:42:18;-3.80;99.90
69261;DHT22;56378;52.404;20.816;2023-03-03T05:44:44;-3.80;99.90
69261;DHT22;56378;52.404;20.816;2023-03-03T05:47:10;-3.80;99.90
69261;DHT22;56378;52.404;20.816;2023-03-03T05:49:36;-3.70;99.90
69261;DHT22;56378;52.404;20.816;2023-03-03T05:52:01;-3.60;99.90
69261;DHT22;56378;52.404;20.816;2023-03-03T05:54:27;-3.60;99.90
69261;DHT22;56378;52.404;20.816;2023-03-03T05:56:53;-3.50;99.90
69261;DHT22;56378;52.404;20.816;2023-03-03T05:59:19;-3.50;99.90
69261;DHT22;56378;52.404;20.816;2023-03-03T06:01:45;-3.50;99.90
69261;DHT22;56378;52.404;20.816;2023-03-03T06:04:11;-3.50;99.90
69261;DHT22;56378;52.404;20.816;2023-03-03T06:06:36;-3.40;99.90
69261;DHT22;56378;52.404;20.816;2023-03-03T06:09:02;-3.40;99.90
69261;DHT22;56378;52.404;20.816;2023-03-03T06:11:28;-3.30;99.90
69261;DHT22;56378;52.404;20.816;2023-03-03T06:13:54;-3.30;99.90
69261;DHT22;56378;52.404;20.816;2023-03-03T06:16:19;-3.20;99.90
69261;DHT22;56378;52.404;20.816;2023-03-03T06:18:45;-3.20;99.90
69261;DHT22;56378;52.404;20.816;2023-03-03T06:21:11;-3.20;99.90
69261;DHT22;56378;52.404;20.816;2023-03-03T06:23:37;-3.10;99.90
69261;DHT22;56378;52.404;20.816;2023-03-03T06:26:03;-3.10;99.90
69261;DHT22;56378;52.404;20.816;2023-03-03T06:28:28;-3.10;99.90
69261;DHT22;56378;52.404;20.816;2023-03-03T06:30:55;-3.10;99.90
69261;DHT22;56378;52.404;20.816;2023-03-03T06:33:21;-3.00;99.90
69261;DHT22;56378;52.404;20.816;2023-03-03T06:35:51;-3.00;99.90
69261;DHT22;56378;52.404;20.816;2023-03-03T06:38:18;-3.10;99.90
69261;DHT22;56378;52.404;20.816;2023-03-03T06:40:44;-3.10;99.90
69261;DHT22;56378;52.404;20.816;2023-03-03T06:43:10;-3.00;99.90
69261;DHT22;56378;52.404;20.816;2023-03-03T06:45:36;-3.00;99.90
69261;DHT22;56378;52.404;20.816;2023-03-03T06:48:03;-2.90;99.90
69261;DHT22;56378;52.404;20.816;2023-03-03T06:50:29;-2.90;99.90
69261;DHT22;56378;52.404;20.816;2023-03-03T06:53:21;-2.90;99.90
69261;DHT22;56378;52.404;20.816;2023-03-03T06:55:46;-2.80;99.90
69261;DHT22;56378;52.404;20.816;2023-03-03T06:58:18;-2.80;99.90
69261;DHT22;56378;52.404;20.816;2023-03-03T07:00:56;-2.80;99.90
69261;DHT22;56378;52.404;20.816;2023-03-03T07:03:23;-2.70;99.90
69261;DHT22;56378;52.404;20.816;2023-03-03T07:05:49;-2.70;99.90
69261;DHT22;56378;52.404;20.816;2023-03-03T07:08:22;-2.70;99.90
69261;DHT22;56378;52.404;20.816;2023-03-03T07:10:48;-2.70;99.90
69261;DHT22;56378;52.404;20.816;2023-03-03T07:13:27;-2.70;99.90
69261;DHT22;56378;52.404;20.816;2023-03-03T07:15:55;-2.70;99.90
69261;DHT22;56378;52.404;20.816;2023-03-03T07:23:48;-2.60;99.90
69261;DHT22;56378;52.404;20.816;2023-03-03T07:26:17;-2.60;99.90
69261;DHT22;56378;52.404;20.816;2023-03-03T07:28:59;-2.50;99.90
69261;DHT22;56378;52.404;20.816;2023-03-03T07:33:53;-2.40;99.90
69261;DHT22;56378;52.404;20.816;2023-03-03T07:36:35;-2.40;99.90
69261;DHT22;56378;52.404;20.816;2023-03-03T07:41:45;-2.30;99.90
69261;DHT22;56378;52.404;20.816;2023-03-03T07:44:23;-2.20;99.90
69261;DHT22;56378;52.404;20.816;2023-03-03T07:46:50;-2.20;99.90
69261;DHT22;56378;52.404;20.816;2023-03-03T07:49:22;-2.10;99.90
69261;DHT22;56378;52.404;20.816;2023-03-03T07:51:54;-2.10;99.90
69261;DHT22;56378;52.404;20.816;2023-03-03T07:54:42;-2.10;99.90
69261;DHT22;56378;52.404;20.816;2023-03-03T07:59:47;-2.00;99.90
69261;DHT22;56378;52.404;20.816;2023-03-03T08:02:37;-1.90;99.90
69261;DHT22;56378;52.404;20.816;2023-03-03T08:05:26;-1.80;99.90
69261;DHT22;56378;52.404;20.816;2023-03-03T08:07:53;-1.80;99.90
69261;DHT22;56378;52.404;20.816;2023-03-03T08:10:52;-1.70;99.90
69261;DHT22;56378;52.404;20.816;2023-03-03T08:13:21;-1.70;99.90
69261;DHT22;56378;52.404;20.816;2023-03-03T08:15:54;-1.70;99.90
69261;DHT22;56378;52.404;20.816;2023-03-03T08:18:29;-1.60;99.90
69261;DHT22;56378;52.404;20.816;2023-03-03T08:20:59;-1.50;99.90
69261;DHT22;56378;52.404;20.816;2023-03-03T08:23:25;-1.50;99.90
69261;DHT22;56378;52.404;20.816;2023-03-03T08:25:51;-1.50;99.90
69261;DHT22;56378;52.404;20.816;2023-03-03T08:28:18;-1.50;99.90
69261;DHT22;56378;52.404;20.816;2023-03-03T08:30:44;-1.50;99.90
69261;DHT22;56378;52.404;20.816;2023-03-03T08:33:10;-1.50;99.90
69261;DHT22;56378;52.404;20.816;2023-03-03T08:35:36;-1.50;99.90
69261;DHT22;56378;52.404;20.816;2023-03-03T08:38:02;-1.50;99.90
69261;DHT22;56378;52.404;20.816;2023-03-03T08:40:28;-1.50;99.90
69261;DHT22;56378;52.404;20.816;2023-03-03T08:42:54;-1.50;99.90
69261;DHT22;56378;52.404;20.816;2023-03-03T08:45:20;-1.40;99.90
69261;DHT22;56378;52.404;20.816;2023-03-03T08:47:46;-1.40;99.90
69261;DHT22;56378;52.404;20.816;2023-03-03T08:50:12;-1.40;99.90
69261;DHT22;56378;52.404;20.816;2023-03-03T08:52:38;-1.30;99.90
69261;DHT22;56378;52.404;20.816;2023-03-03T08:55:04;-1.30;99.90
69261;DHT22;56378;52.404;20.816;2023-03-03T08:57:30;-1.30;99.90
69261;DHT22;56378;52.404;20.816;2023-03-03T08:59:56;-1.30;99.90
69261;DHT22;56378;52.404;20.816;2023-03-03T09:02:22;-1.30;99.90
69261;DHT22;56378;52.404;20.816;2023-03-03T09:04:47;-1.30;99.90
69261;DHT22;56378;52.404;20.816;2023-03-03T09:07:13;-1.30;99.90
69261;DHT22;56378;52.404;20.816;2023-03-03T09:09:39;-1.30;99.90
69261;DHT22;56378;52.404;20.816;2023-03-03T09:12:20;-1.30;99.90
69261;DHT22;56378;52.404;20.816;2023-03-03T09:14:48;-1.30;99.90
69261;DHT22;56378;52.404;20.816;2023-03-03T09:17:29;-1.30;99.90
69261;DHT22;56378;52.404;20.816;2023-03-03T09:20:16;-1.30;99.90
69261;DHT22;56378;52.404;20.816;2023-03-03T09:22:45;-1.40;99.90
69261;DHT22;56378;52.404;20.816;2023-03-03T09:25:40;-1.30;99.90
69261;DHT22;56378;52.404;20.816;2023-03-03T09:28:25;-1.40;99.90
69261;DHT22;56378;52.404;20.816;2023-03-03T09:30:52;-1.40;99.90
69261;DHT22;56378;52.404;20.816;2023-03-03T09:33:26;-1.30;99.90
69261;DHT22;56378;52.404;20.816;2023-03-03T09:38:46;-1.30;99.90
69261;DHT22;56378;52.404;20.816;2023-03-03T09:41:29;-1.20;99.90
69261;DHT22;56378;52.404;20.816;2023-03-03T09:44:10;-1.20;99.90
69261;DHT22;56378;52.404;20.816;2023-03-03T09:49:35;-1.20;99.90
69261;DHT22;56378;52.404;20.816;2023-03-03T09:54:55;-1.20;99.90
69261;DHT22;56378;52.404;20.816;2023-03-03T10:00:06;-1.20;99.90
69261;DHT22;56378;52.404;20.816;2023-03-03T10:22:19;-1.20;99.90
69261;DHT22;56378;52.404;20.816;2023-03-03T10:30:42;-1.10;99.90
69261;DHT22;56378;52.404;20.816;2023-03-03T10:39:04;-1.10;99.90
69261;DHT22;56378;52.404;20.816;2023-03-03T10:42:04;-1.20;99.90
69261;DHT22;56378;52.404;20.816;2023-03-03T10:50:15;-1.20;99.90
69261;DHT22;56378;52.404;20.816;2023-03-03T10:52:50;-1.20;99.90
69261;DHT22;56378;52.404;20.816;2023-03-03T10:58:57;-1.20;99.90
69261;DHT22;56378;52.404;20.816;2023-03-03T11:01:44;-1.20;99.90
69261;DHT22;56378;52.404;20.816;2023-03-03T11:04:23;-1.20;99.90
69261;DHT22;56378;52.404;20.816;2023-03-03T11:06:52;-1.10;99.90
69261;DHT22;56378;52.404;20.816;2023-03-03T11:20:03;-1.00;99.90
69261;DHT22;56378;52.404;20.816;2023-03-03T11:22:56;-1.00;99.90
69261;DHT22;56378;52.404;20.816;2023-03-03T11:25:51;-1.10;99.90
69261;DHT22;56378;52.404;20.816;2023-03-03T11:28:35;-1.10;99.90
69261;DHT22;56378;52.404;20.816;2023-03-03T11:34:11;-1.10;99.90
69261;DHT22;56378;52.404;20.816;2023-03-03T11:36:47;-1.10;99.90
69261;DHT22;56378;52.404;20.816;2023-03-03T11:39:18;-1.10;99.90
69261;DHT22;56378;52.404;20.816;2023-03-03T11:56:00;-1.10;99.90
69261;DHT22;56378;52.404;20.816;2023-03-03T11:58:48;-1.10;99.90
69261;DHT22;56378;52.404;20.816;2023-03-03T12:04:14;-1.20;99.90
69261;DHT22;56378;52.404;20.816;2023-03-03T12:07:12;-1.20;99.90
69261;DHT22;56378;52.404;20.816;2023-03-03T12:10:02;-1.20;99.90
69261;DHT22;56378;52.404;20.816;2023-03-03T12:12:35;-1.20;99.90
69261;DHT22;56378;52.404;20.816;2023-03-03T12:20:43;-1.20;99.90
69261;DHT22;56378;52.404;20.816;2023-03-03T12:28:38;-1.20;99.90
69261;DHT22;56378;52.404;20.816;2023-03-03T12:31:15;-1.30;99.90
69261;DHT22;56378;52.404;20.816;2023-03-03T12:34:10;-1.30;99.90
69261;DHT22;56378;52.404;20.816;2023-03-03T12:42:23;-1.20;99.90
69261;DHT22;56378;52.404;20.816;2023-03-03T12:56:18;-1.10;99.90
69261;DHT22;56378;52.404;20.816;2023-03-03T12:59:03;-1.10;99.90
69261;DHT22;56378;52.404;20.816;2023-03-03T13:01:56;-1.10;99.90
69261;DHT22;56378;52.404;20.816;2023-03-03T13:04:43;-1.10;99.90
69261;DHT22;56378;52.404;20.816;2023-03-03T13:07:44;-1.10;99.90
69261;DHT22;56378;52.404;20.816;2023-03-03T13:16:09;-1.00;99.90
69261;DHT22;56378;52.404;20.816;2023-03-03T13:18:56;-1.00;99.90
69261;DHT22;56378;52.404;20.816;2023-03-03T13:21:47;-1.00;99.90
69261;DHT22;56378;52.404;20.816;2023-03-03T13:24:52;-1.10;99.90
69261;DHT22;56378;52.404;20.816;2023-03-03T13:27:23;-1.10;99.90
69261;DHT22;56378;52.404;20.816;2023-03-03T13:30:19;-1.10;99.90
69261;DHT22;56378;52.404;20.816;2023-03-03T13:33:17;-1.10;99.90
69261;DHT22;56378;52.404;20.816;2023-03-03T13:35:55;-1.10;99.90
69261;DHT22;56378;52.404;20.816;2023-03-03T13:38:35;-1.20;99.90
69261;DHT22;56378;52.404;20.816;2023-03-03T13:41:09;-1.20;99.90
69261;DHT22;56378;52.404;20.816;2023-03-03T13:43:50;-1.20;99.90
69261;DHT22;56378;52.404;20.816;2023-03-03T14:05:28;-1.10;99.90
69261;DHT22;56378;52.404;20.816;2023-03-03T14:10:39;-1.10;99.90
69261;DHT22;56378;52.404;20.816;2023-03-03T14:16:41;-1.10;99.90
69261;DHT22;56378;52.404;20.816;2023-03-03T14:22:18;-1.10;99.90
69261;DHT22;56378;52.404;20.816;2023-03-03T14:25:03;-1.10;99.90
69261;DHT22;56378;52.404;20.816;2023-03-03T14:43:44;-1.10;99.90
69261;DHT22;56378;52.404;20.816;2023-03-03T14:48:56;-1.20;99.90
69261;DHT22;56378;52.404;20.816;2023-03-03T14:54:26;-1.10;99.90
69261;DHT22;56378;52.404;20.816;2023-03-03T15:02:33;-1.10;99.90
69261;DHT22;56378;52.404;20.816;2023-03-03T15:05:27;-1.10;99.90
69261;DHT22;56378;52.404;20.816;2023-03-03T15:10:35;-1.10;99.90
69261;DHT22;56378;52.404;20.816;2023-03-03T15:18:25;-1.20;99.90
69261;DHT22;56378;52.404;20.816;2023-03-03T15:21:14;-1.20;99.90
69261;DHT22;56378;52.404;20.816;2023-03-03T15:42:32;-1.20;99.90
69261;DHT22;56378;52.404;20.816;2023-03-03T16:04:25;-1.10;99.90
69261;DHT22;56378;52.404;20.816;2023-03-03T16:15:30;-1.20;99.90
69261;DHT22;56378;52.404;20.816;2023-03-03T16:21:41;-1.20;99.90
69261;DHT22;56378;52.404;20.816;2023-03-03T16:24:21;-1.20;99.90
69261;DHT22;56378;52.404;20.816;2023-03-03T16:29:43;-1.30;99.90
69261;DHT22;56378;52.404;20.816;2023-03-03T16:32:23;-1.30;99.90
69261;DHT22;56378;52.404;20.816;2023-03-03T16:37:34;-1.30;99.90
69261;DHT22;56378;52.404;20.816;2023-03-03T16:40:21;-1.30;99.90
69261;DHT22;56378;52.404;20.816;2023-03-03T16:42:56;-1.40;99.90
69261;DHT22;56378;52.404;20.816;2023-03-03T16:45:38;-1.40;99.90
69261;DHT22;56378;52.404;20.816;2023-03-03T16:56:27;-1.50;99.90
69261;DHT22;56378;52.404;20.816;2023-03-03T17:04:46;-1.50;99.90
69261;DHT22;56378;52.404;20.816;2023-03-03T17:07:43;-1.40;99.90
69261;DHT22;56378;52.404;20.816;2023-03-03T17:10:26;-1.40;99.90
69261;DHT22;56378;52.404;20.816;2023-03-03T17:35:10;-1.40;99.90
69261;DHT22;56378;52.404;20.816;2023-03-03T17:52:14;-1.40;99.90
69261;DHT22;56378;52.404;20.816;2023-03-03T18:01:02;-1.40;99.90
69261;DHT22;56378;52.404;20.816;2023-03-03T18:04:01;-1.40;99.90
69261;DHT22;56378;52.404;20.816;2023-03-03T18:22:45;-1.40;99.70
69261;DHT22;56378;52.404;20.816;2023-03-03T18:25:14;-1.40;99.70
69261;DHT22;56378;52.404;20.816;2023-03-03T18:30:30;-1.40;99.80
69261;DHT22;56378;52.404;20.816;2023-03-03T18:33:16;-1.40;99.90
69261;DHT22;56378;52.404;20.816;2023-03-03T18:36:11;-1.40;99.90
69261;DHT22;56378;52.404;20.816;2023-03-03T18:38:38;-1.40;99.90
69261;DHT22;56378;52.404;20.816;2023-03-03T18:41:10;-1.40;99.90
69261;DHT22;56378;52.404;20.816;2023-03-03T18:54:21;-1.40;99.90
69261;DHT22;56378;52.404;20.816;2023-03-03T19:04:39;-1.30;99.90
69261;DHT22;56378;52.404;20.816;2023-03-03T19:07:14;-1.40;99.90
69261;DHT22;56378;52.404;20.816;2023-03-03T19:09:45;-1.40;99.90
69261;DHT22;56378;52.404;20.816;2023-03-03T19:12:16;-1.40;99.90
69261;DHT22;56378;52.404;20.816;2023-03-03T19:14:48;-1.40;99.90
69261;DHT22;56378;52.404;20.816;2023-03-03T19:20:08;-1.40;99.90
69261;DHT22;56378;52.404;20.816;2023-03-03T19:23:04;-1.40;99.90
69261;DHT22;56378;52.404;20.816;2023-03-03T19:25:30;-1.40;99.90
69261;DHT22;56378;52.404;20.816;2023-03-03T19:28:11;-1.40;99.90
69261;DHT22;56378;52.404;20.816;2023-03-03T19:31:05;-1.40;99.90
69261;DHT22;56378;52.404;20.816;2023-03-03T19:36:59;-1.40;99.80
69261;DHT22;56378;52.404;20.816;2023-03-03T19:45:24;-1.40;99.30
69261;DHT22;56378;52.404;20.816;2023-03-03T19:47:56;-1.40;99.40
69261;DHT22;56378;52.404;20.816;2023-03-03T19:50:59;-1.40;99.50
69261;DHT22;56378;52.404;20.816;2023-03-03T19:56:41;-1.40;99.60
69261;DHT22;56378;52.404;20.816;2023-03-03T20:07:42;-1.40;99.10
69261;DHT22;56378;52.404;20.816;2023-03-03T20:18:39;-1.40;98.70
69261;DHT22;56378;52.404;20.816;2023-03-03T20:24:17;-1.40;98.70
69261;DHT22;56378;52.404;20.816;2023-03-03T20:35:35;-1.40;99.10
69261;DHT22;56378;52.404;20.816;2023-03-03T20:45:51;-1.40;98.80
69261;DHT22;56378;52.404;20.816;2023-03-03T20:51:18;-1.30;98.70
69261;DHT22;56378;52.404;20.816;2023-03-03T20:57:26;-1.30;98.10
69261;DHT22;56378;52.404;20.816;2023-03-03T21:00:28;-1.30;98.00
69261;DHT22;56378;52.404;20.816;2023-03-03T21:05:21;-1.30;98.10
69261;DHT22;56378;52.404;20.816;2023-03-03T21:07:59;-1.30;98.20
69261;DHT22;56378;52.404;20.816;2023-03-03T21:10:33;-1.30;98.30
69261;DHT22;56378;52.404;20.816;2023-03-03T21:19:02;-1.30;98.40
69261;DHT22;56378;52.404;20.816;2023-03-03T21:21:39;-1.30;98.50
69261;DHT22;56378;52.404;20.816;2023-03-03T21:24:06;-1.30;98.60
69261;DHT22;56378;52.404;20.816;2023-03-03T21:32:03;-1.30;98.60
69261;DHT22;56378;52.404;20.816;2023-03-03T21:34:36;-1.20;98.70
69261;DHT22;56378;52.404;20.816;2023-03-03T21:37:08;-1.20;98.80
69261;DHT22;56378;52.404;20.816;2023-03-03T21:39:37;-1.20;98.70
69261;DHT22;56378;52.404;20.816;2023-03-03T21:42:13;-1.20;98.80
69261;DHT22;56378;52.404;20.816;2023-03-03T21:44:47;-1.20;99.90
69261;DHT22;56378;52.404;20.816;2023-03-03T21:47:19;-1.10;99.60
69261;DHT22;56378;52.404;20.816;2023-03-03T21:49:47;-1.10;98.90
69261;DHT22;56378;52.404;20.816;2023-03-03T21:52:15;-1.10;98.70
69261;DHT22;56378;52.404;20.816;2023-03-03T21:54:46;-1.10;98.90
69261;DHT22;56378;52.404;20.816;2023-03-03T21:57:12;-1.10;99.10
69261;DHT22;56378;52.404;20.816;2023-03-03T21:59:38;-1.10;99.10
69261;DHT22;56378;52.404;20.816;2023-03-03T22:02:04;-1.10;99.20
69261;DHT22;56378;52.404;20.816;2023-03-03T22:04:30;-1.10;99.20
69261;DHT22;56378;52.404;20.816;2023-03-03T22:06:56;-1.10;99.40
69261;DHT22;56378;52.404;20.816;2023-03-03T22:09:22;-1.10;99.50
69261;DHT22;56378;52.404;20.816;2023-03-03T22:11:48;-1.10;99.70
69261;DHT22;56378;52.404;20.816;2023-03-03T22:14:14;-1.10;99.90
69261;DHT22;56378;52.404;20.816;2023-03-03T22:16:39;-1.10;99.90
69261;DHT22;56378;52.404;20.816;2023-03-03T22:19:05;-1.10;99.90
69261;DHT22;56378;52.404;20.816;2023-03-03T22:21:34;-1.10;99.90
69261;DHT22;56378;52.404;20.816;2023-03-03T22:24:00;-1.10;99.90
69261;DHT22;56378;52.404;20.816;2023-03-03T22:26:26;-1.10;99.90
69261;DHT22;56378;52.404;20.816;2023-03-03T22:28:52;-1.10;99.90
69261;DHT22;56378;52.404;20.816;2023-03-03T22:31:18;-1.00;99.90
69261;DHT22;56378;52.404;20.816;2023-03-03T22:33:45;-1.00;99.90
69261;DHT22;56378;52.404;20.816;2023-03-03T22:36:12;-1.00;99.90
69261;DHT22;56378;52.404;20.816;2023-03-03T22:38:38;-1.00;99.90
69261;DHT22;56378;52.404;20.816;2023-03-03T22:41:04;-1.00;99.90
69261;DHT22;56378;52.404;20.816;2023-03-03T22:43:30;-1.10;99.90
69261;DHT22;56378;52.404;20.816;2023-03-03T22:45:56;-1.00;99.90
69261;DHT22;56378;52.404;20.816;2023-03-03T22:48:23;-1.10;99.90